sensor_id;sensor_type;location;lat;lon;timestamp;P1;durP1;ratioP1;P2;durP2;ratioP2
74328;SDS011;62745;51.060;13.786;2023-04-29T00:00:41;23.63;;;12.52;;
74328;SDS011;62745;51.060;13.786;2023-04-29T00:03:07;25.90;;;12.60;;
74328;SDS011;62745;51.060;13.786;2023-04-29T00:05:32;21.90;;;12.40;;
74328;SDS011;62745;51.060;13.786;2023-04-29T00:07:57;20.63;;;11.80;;
74328;SDS011;62745;51.060;13.786;2023-04-29T00:10:22;21.83;;;12.77;;
74328;SDS011;62745;51.060;13.786;2023-04-29T00:12:48;20.70;;;12.73;;
74328;SDS011;62745;51.060;13.786;2023-04-29T00:15:15;27.15;;;12.18;;
74328;SDS011;62745;51.060;13.786;2023-04-29T00:17:40;21.98;;;12.30;;
74328;SDS011;62745;51.060;13.786;2023-04-29T00:20:06;19.20;;;11.90;;
74328;SDS011;62745;51.060;13.786;2023-04-29T00:22:32;25.67;;;12.82;;
74328;SDS011;62745;51.060;13.786;2023-04-29T00:24:57;23.17;;;11.93;;
74328;SDS011;62745;51.060;13.786;2023-04-29T00:27:22;24.60;;;13.32;;
74328;SDS011;62745;51.060;13.786;2023-04-29T00:29:48;21.53;;;12.00;;
74328;SDS011;62745;51.060;13.786;2023-04-29T00:32:13;20.83;;;12.23;;
74328;SDS011;62745;51.060;13.786;2023-04-29T00:34:38;22.07;;;12.50;;
74328;SDS011;62745;51.060;13.786;2023-04-29T00:37:03;19.43;;;11.50;;
74328;SDS011;62745;51.060;13.786;2023-04-29T00:39:29;22.25;;;11.75;;
74328;SDS011;62745;51.060;13.786;2023-04-29T00:41:54;19.80;;;11.73;;
74328;SDS011;62745;51.060;13.786;2023-04-29T00:44:19;22.30;;;11.77;;
74328;SDS011;62745;51.060;13.786;2023-04-29T00:46:44;18.73;;;11.17;;
74328;SDS011;62745;51.060;13.786;2023-04-29T00:49:10;21.77;;;11.93;;
74328;SDS011;62745;51.060;13.786;2023-04-29T00:51:37;22.77;;;12.65;;
74328;SDS011;62745;51.060;13.786;2023-04-29T00:54:05;18.45;;;11.48;;
74328;SDS011;62745;51.060;13.786;2023-04-29T00:56:31;21.85;;;12.48;;
74328;SDS011;62745;51.060;13.786;2023-04-29T00:58:59;21.45;;;12.05;;
74328;SDS011;62745;51.060;13.786;2023-04-29T01:01:26;20.75;;;11.30;;
74328;SDS011;62745;51.060;13.786;2023-04-29T01:03:52;23.58;;;13.13;;
74328;SDS011;62745;51.060;13.786;2023-04-29T01:12:19;21.23;;;11.88;;
74328;SDS011;62745;51.060;13.786;2023-04-29T01:17:59;24.00;;;12.25;;
74328;SDS011;62745;51.060;13.786;2023-04-29T01:20:29;23.30;;;13.02;;
74328;SDS011;62745;51.060;13.786;2023-04-29T01:22:56;23.88;;;11.68;;
74328;SDS011;62745;51.060;13.786;2023-04-29T01:25:21;22.67;;;11.90;;
74328;SDS011;62745;51.060;13.786;2023-04-29T01:32:59;23.88;;;12.65;;
74328;SDS011;62745;51.060;13.786;2023-04-29T01:41:44;22.02;;;11.95;;
74328;SDS011;62745;51.060;13.786;2023-04-29T01:44:21;23.95;;;11.57;;
74328;SDS011;62745;51.060;13.786;2023-04-29T01:46:51;26.05;;;13.65;;
74328;SDS011;62745;51.060;13.786;2023-04-29T01:49:23;24.85;;;13.02;;
74328;SDS011;62745;51.060;13.786;2023-04-29T01:51:48;25.42;;;13.43;;
74328;SDS011;62745;51.060;13.786;2023-04-29T01:54:13;23.50;;;13.07;;
74328;SDS011;62745;51.060;13.786;2023-04-29T01:56:39;26.37;;;13.47;;
74328;SDS011;62745;51.060;13.786;2023-04-29T01:59:04;26.55;;;13.95;;
74328;SDS011;62745;51.060;13.786;2023-04-29T02:01:30;23.93;;;13.20;;
74328;SDS011;62745;51.060;13.786;2023-04-29T02:03:55;26.83;;;13.82;;
74328;SDS011;62745;51.060;13.786;2023-04-29T02:06:20;28.60;;;13.77;;
74328;SDS011;62745;51.060;13.786;2023-04-29T02:08:45;27.63;;;14.05;;
74328;SDS011;62745;51.060;13.786;2023-04-29T02:11:12;28.10;;;14.15;;
74328;SDS011;62745;51.060;13.786;2023-04-29T02:13:37;28.83;;;15.67;;
74328;SDS011;62745;51.060;13.786;2023-04-29T02:16:12;26.33;;;13.70;;
74328;SDS011;62745;51.060;13.786;2023-04-29T02:18:39;23.63;;;13.88;;
74328;SDS011;62745;51.060;13.786;2023-04-29T02:21:05;26.42;;;14.65;;
74328;SDS011;62745;51.060;13.786;2023-04-29T02:23:30;28.73;;;14.05;;
74328;SDS011;62745;51.060;13.786;2023-04-29T02:25:55;24.67;;;13.60;;
74328;SDS011;62745;51.060;13.786;2023-04-29T02:28:21;29.23;;;15.70;;
74328;SDS011;62745;51.060;13.786;2023-04-29T02:30:47;25.73;;;13.73;;
74328;SDS011;62745;51.060;13.786;2023-04-29T02:33:13;30.35;;;15.48;;
74328;SDS011;62745;51.060;13.786;2023-04-29T02:35:38;25.75;;;13.98;;
74328;SDS011;62745;51.060;13.786;2023-04-29T02:38:04;29.00;;;14.38;;
74328;SDS011;62745;51.060;13.786;2023-04-29T02:40:29;26.90;;;13.18;;
74328;SDS011;62745;51.060;13.786;2023-04-29T02:42:55;23.73;;;14.27;;
74328;SDS011;62745;51.060;13.786;2023-04-29T02:45:20;24.97;;;13.10;;
74328;SDS011;62745;51.060;13.786;2023-04-29T02:47:46;29.23;;;13.95;;
74328;SDS011;62745;51.060;13.786;2023-04-29T02:50:11;25.73;;;13.87;;
74328;SDS011;62745;51.060;13.786;2023-04-29T02:52:37;30.52;;;14.45;;
74328;SDS011;62745;51.060;13.786;2023-04-29T02:55:02;25.73;;;12.65;;
74328;SDS011;62745;51.060;13.786;2023-04-29T02:57:27;27.83;;;12.98;;
74328;SDS011;62745;51.060;13.786;2023-04-29T02:59:53;27.27;;;13.45;;
74328;SDS011;62745;51.060;13.786;2023-04-29T03:02:19;27.52;;;14.55;;
74328;SDS011;62745;51.060;13.786;2023-04-29T03:04:44;26.23;;;13.90;;
74328;SDS011;62745;51.060;13.786;2023-04-29T03:07:09;24.90;;;13.40;;
74328;SDS011;62745;51.060;13.786;2023-04-29T03:09:34;24.90;;;13.67;;
74328;SDS011;62745;51.060;13.786;2023-04-29T03:12:00;23.37;;;12.83;;
74328;SDS011;62745;51.060;13.786;2023-04-29T03:14:26;26.42;;;12.82;;
74328;SDS011;62745;51.060;13.786;2023-04-29T03:16:52;24.73;;;12.50;;
74328;SDS011;62745;51.060;13.786;2023-04-29T03:19:17;23.37;;;12.70;;
74328;SDS011;62745;51.060;13.786;2023-04-29T03:21:42;22.93;;;11.30;;
74328;SDS011;62745;51.060;13.786;2023-04-29T03:24:08;24.15;;;12.23;;
74328;SDS011;62745;51.060;13.786;2023-04-29T03:26:33;18.77;;;10.67;;
74328;SDS011;62745;51.060;13.786;2023-04-29T03:28:58;19.15;;;10.25;;
74328;SDS011;62745;51.060;13.786;2023-04-29T03:31:24;20.17;;;10.07;;
74328;SDS011;62745;51.060;13.786;2023-04-29T03:33:51;20.60;;;10.35;;
74328;SDS011;62745;51.060;13.786;2023-04-29T03:36:17;19.42;;;9.48;;
74328;SDS011;62745;51.060;13.786;2023-04-29T03:38:42;16.15;;;9.10;;
74328;SDS011;62745;51.060;13.786;2023-04-29T03:41:08;15.05;;;8.32;;
74328;SDS011;62745;51.060;13.786;2023-04-29T03:43:33;15.20;;;7.93;;
74328;SDS011;62745;51.060;13.786;2023-04-29T03:45:59;16.70;;;8.73;;
74328;SDS011;62745;51.060;13.786;2023-04-29T03:48:24;15.18;;;8.20;;
74328;SDS011;62745;51.060;13.786;2023-04-29T03:50:49;16.50;;;8.77;;
74328;SDS011;62745;51.060;13.786;2023-04-29T03:53:15;15.00;;;8.55;;
74328;SDS011;62745;51.060;13.786;2023-04-29T03:55:41;15.02;;;8.07;;
74328;SDS011;62745;51.060;13.786;2023-04-29T03:58:06;14.82;;;7.53;;
74328;SDS011;62745;51.060;13.786;2023-04-29T04:00:32;15.38;;;8.25;;
74328;SDS011;62745;51.060;13.786;2023-04-29T04:02:58;16.63;;;7.95;;
74328;SDS011;62745;51.060;13.786;2023-04-29T04:05:23;15.40;;;8.00;;
74328;SDS011;62745;51.060;13.786;2023-04-29T04:07:52;13.48;;;7.20;;
74328;SDS011;62745;51.060;13.786;2023-04-29T04:10:18;14.52;;;7.45;;
74328;SDS011;62745;51.060;13.786;2023-04-29T04:12:43;12.02;;;6.72;;
74328;SDS011;62745;51.060;13.786;2023-04-29T04:15:09;13.60;;;7.72;;
74328;SDS011;62745;51.060;13.786;2023-04-29T04:17:35;16.13;;;7.20;;
74328;SDS011;62745;51.060;13.786;2023-04-29T04:20:00;14.07;;;7.07;;
74328;SDS011;62745;51.060;13.786;2023-04-29T04:22:25;13.95;;;6.90;;
74328;SDS011;62745;51.060;13.786;2023-04-29T04:24:53;13.00;;;7.03;;
74328;SDS011;62745;51.060;13.786;2023-04-29T04:27:19;12.55;;;6.07;;
74328;SDS011;62745;51.060;13.786;2023-04-29T04:29:44;13.73;;;6.72;;
74328;SDS011;62745;51.060;13.786;2023-04-29T04:32:09;14.27;;;6.47;;
74328;SDS011;62745;51.060;13.786;2023-04-29T04:34:35;15.50;;;6.37;;
74328;SDS011;62745;51.060;13.786;2023-04-29T04:37:00;13.30;;;6.45;;
74328;SDS011;62745;51.060;13.786;2023-04-29T04:39:26;12.83;;;6.83;;
74328;SDS011;62745;51.060;13.786;2023-04-29T04:41:51;14.03;;;6.30;;
74328;SDS011;62745;51.060;13.786;2023-04-29T04:44:16;13.13;;;7.03;;
74328;SDS011;62745;51.060;13.786;2023-04-29T04:46:42;11.02;;;6.32;;
74328;SDS011;62745;51.060;13.786;2023-04-29T04:49:07;10.63;;;6.27;;
74328;SDS011;62745;51.060;13.786;2023-04-29T04:51:32;10.95;;;5.80;;
74328;SDS011;62745;51.060;13.786;2023-04-29T04:53:58;11.55;;;6.22;;
74328;SDS011;62745;51.060;13.786;2023-04-29T04:56:23;12.43;;;5.83;;
74328;SDS011;62745;51.060;13.786;2023-04-29T04:58:48;14.03;;;6.27;;
74328;SDS011;62745;51.060;13.786;2023-04-29T05:01:14;13.02;;;5.28;;
74328;SDS011;62745;51.060;13.786;2023-04-29T05:03:39;11.60;;;5.78;;
74328;SDS011;62745;51.060;13.786;2023-04-29T05:06:04;10.50;;;5.30;;
74328;SDS011;62745;51.060;13.786;2023-04-29T05:08:30;9.80;;;5.25;;
74328;SDS011;62745;51.060;13.786;2023-04-29T05:10:55;9.23;;;4.93;;
74328;SDS011;62745;51.060;13.786;2023-04-29T05:13:22;9.02;;;4.90;;
74328;SDS011;62745;51.060;13.786;2023-04-29T05:15:49;11.35;;;5.00;;
74328;SDS011;62745;51.060;13.786;2023-04-29T05:18:14;9.30;;;4.57;;
74328;SDS011;62745;51.060;13.786;2023-04-29T05:20:40;10.60;;;5.28;;
74328;SDS011;62745;51.060;13.786;2023-04-29T05:23:05;9.67;;;4.90;;
74328;SDS011;62745;51.060;13.786;2023-04-29T05:25:31;12.45;;;5.85;;
74328;SDS011;62745;51.060;13.786;2023-04-29T05:27:56;10.30;;;4.97;;
74328;SDS011;62745;51.060;13.786;2023-04-29T05:30:21;11.00;;;4.93;;
74328;SDS011;62745;51.060;13.786;2023-04-29T05:32:47;9.75;;;4.57;;
74328;SDS011;62745;51.060;13.786;2023-04-29T05:35:15;9.20;;;4.80;;
74328;SDS011;62745;51.060;13.786;2023-04-29T05:37:40;11.40;;;4.75;;
74328;SDS011;62745;51.060;13.786;2023-04-29T05:40:06;7.63;;;4.50;;
74328;SDS011;62745;51.060;13.786;2023-04-29T05:42:32;8.45;;;4.43;;
74328;SDS011;62745;51.060;13.786;2023-04-29T05:44:57;9.15;;;4.80;;
74328;SDS011;62745;51.060;13.786;2023-04-29T05:47:23;9.93;;;4.40;;
74328;SDS011;62745;51.060;13.786;2023-04-29T05:49:48;8.37;;;4.90;;
74328;SDS011;62745;51.060;13.786;2023-04-29T05:52:14;9.40;;;4.85;;
74328;SDS011;62745;51.060;13.786;2023-04-29T05:54:39;9.65;;;5.13;;
74328;SDS011;62745;51.060;13.786;2023-04-29T05:57:05;8.98;;;4.85;;
74328;SDS011;62745;51.060;13.786;2023-04-29T05:59:31;9.23;;;4.85;;
74328;SDS011;62745;51.060;13.786;2023-04-29T06:01:57;8.70;;;4.15;;
74328;SDS011;62745;51.060;13.786;2023-04-29T06:04:23;11.38;;;5.32;;
74328;SDS011;62745;51.060;13.786;2023-04-29T06:06:49;7.72;;;4.93;;
74328;SDS011;62745;51.060;13.786;2023-04-29T06:09:15;9.07;;;5.00;;
74328;SDS011;62745;51.060;13.786;2023-04-29T06:11:40;9.57;;;4.93;;
74328;SDS011;62745;51.060;13.786;2023-04-29T06:14:06;14.10;;;5.40;;
74328;SDS011;62745;51.060;13.786;2023-04-29T06:16:31;10.10;;;5.43;;
74328;SDS011;62745;51.060;13.786;2023-04-29T06:18:57;12.85;;;5.30;;
74328;SDS011;62745;51.060;13.786;2023-04-29T06:21:22;9.93;;;4.93;;
74328;SDS011;62745;51.060;13.786;2023-04-29T06:23:47;8.95;;;5.07;;
74328;SDS011;62745;51.060;13.786;2023-04-29T06:26:13;8.97;;;5.23;;
74328;SDS011;62745;51.060;13.786;2023-04-29T06:28:38;10.68;;;5.55;;
74328;SDS011;62745;51.060;13.786;2023-04-29T06:31:03;8.93;;;5.40;;
74328;SDS011;62745;51.060;13.786;2023-04-29T06:33:28;11.07;;;6.60;;
74328;SDS011;62745;51.060;13.786;2023-04-29T06:35:55;10.35;;;5.55;;
74328;SDS011;62745;51.060;13.786;2023-04-29T06:38:20;11.70;;;6.65;;
74328;SDS011;62745;51.060;13.786;2023-04-29T06:40:45;10.13;;;6.20;;
74328;SDS011;62745;51.060;13.786;2023-04-29T06:43:11;10.50;;;6.53;;
74328;SDS011;62745;51.060;13.786;2023-04-29T06:45:36;10.07;;;6.33;;
74328;SDS011;62745;51.060;13.786;2023-04-29T06:48:01;9.27;;;5.43;;
74328;SDS011;62745;51.060;13.786;2023-04-29T06:50:27;11.48;;;6.28;;
74328;SDS011;62745;51.060;13.786;2023-04-29T06:52:52;13.53;;;7.10;;
74328;SDS011;62745;51.060;13.786;2023-04-29T06:55:18;10.73;;;6.88;;
74328;SDS011;62745;51.060;13.786;2023-04-29T06:57:43;11.50;;;7.10;;
74328;SDS011;62745;51.060;13.786;2023-04-29T07:00:08;15.27;;;7.77;;
74328;SDS011;62745;51.060;13.786;2023-04-29T07:02:34;15.90;;;8.23;;
74328;SDS011;62745;51.060;13.786;2023-04-29T07:04:59;14.53;;;8.37;;
74328;SDS011;62745;51.060;13.786;2023-04-29T07:07:24;12.77;;;7.43;;
74328;SDS011;62745;51.060;13.786;2023-04-29T07:09:50;15.10;;;8.30;;
74328;SDS011;62745;51.060;13.786;2023-04-29T07:12:17;14.75;;;7.82;;
74328;SDS011;62745;51.060;13.786;2023-04-29T07:14:42;14.73;;;8.50;;
74328;SDS011;62745;51.060;13.786;2023-04-29T07:17:07;13.97;;;7.67;;
74328;SDS011;62745;51.060;13.786;2023-04-29T07:19:33;14.50;;;8.07;;
74328;SDS011;62745;51.060;13.786;2023-04-29T07:21:58;16.77;;;8.40;;
74328;SDS011;62745;51.060;13.786;2023-04-29T07:24:24;15.05;;;8.40;;
74328;SDS011;62745;51.060;13.786;2023-04-29T07:26:50;18.58;;;9.18;;
74328;SDS011;62745;51.060;13.786;2023-04-29T07:29:15;17.13;;;9.63;;
74328;SDS011;62745;51.060;13.786;2023-04-29T07:31:41;16.87;;;8.80;;
74328;SDS011;62745;51.060;13.786;2023-04-29T07:34:06;17.95;;;9.52;;
74328;SDS011;62745;51.060;13.786;2023-04-29T07:36:31;19.37;;;10.63;;
74328;SDS011;62745;51.060;13.786;2023-04-29T07:38:57;19.48;;;10.35;;
74328;SDS011;62745;51.060;13.786;2023-04-29T07:41:23;19.05;;;10.27;;
74328;SDS011;62745;51.060;13.786;2023-04-29T07:43:48;17.00;;;9.43;;
74328;SDS011;62745;51.060;13.786;2023-04-29T07:46:13;18.57;;;9.67;;
74328;SDS011;62745;51.060;13.786;2023-04-29T07:48:40;20.05;;;10.15;;
74328;SDS011;62745;51.060;13.786;2023-04-29T07:51:05;18.83;;;10.17;;
74328;SDS011;62745;51.060;13.786;2023-04-29T07:53:30;17.50;;;9.83;;
74328;SDS011;62745;51.060;13.786;2023-04-29T07:55:56;15.73;;;9.02;;
74328;SDS011;62745;51.060;13.786;2023-04-29T07:58:21;16.33;;;9.53;;
74328;SDS011;62745;51.060;13.786;2023-04-29T08:00:46;18.43;;;10.63;;
74328;SDS011;62745;51.060;13.786;2023-04-29T08:03:12;17.10;;;9.30;;
74328;SDS011;62745;51.060;13.786;2023-04-29T08:05:37;15.98;;;9.77;;
74328;SDS011;62745;51.060;13.786;2023-04-29T08:08:02;16.27;;;9.40;;
74328;SDS011;62745;51.060;13.786;2023-04-29T08:10:28;16.95;;;8.73;;
74328;SDS011;62745;51.060;13.786;2023-04-29T08:12:53;14.47;;;8.30;;
74328;SDS011;62745;51.060;13.786;2023-04-29T08:15:18;13.50;;;8.10;;
74328;SDS011;62745;51.060;13.786;2023-04-29T08:17:44;12.95;;;8.23;;
74328;SDS011;62745;51.060;13.786;2023-04-29T08:20:09;13.10;;;8.25;;
74328;SDS011;62745;51.060;13.786;2023-04-29T08:22:35;13.30;;;8.60;;
74328;SDS011;62745;51.060;13.786;2023-04-29T08:25:01;14.55;;;8.85;;
74328;SDS011;62745;51.060;13.786;2023-04-29T08:27:29;12.15;;;7.50;;
74328;SDS011;62745;51.060;13.786;2023-04-29T08:29:54;11.18;;;7.15;;
74328;SDS011;62745;51.060;13.786;2023-04-29T08:32:20;11.90;;;7.38;;
74328;SDS011;62745;51.060;13.786;2023-04-29T08:34:45;10.27;;;6.05;;
74328;SDS011;62745;51.060;13.786;2023-04-29T08:37:10;9.90;;;6.40;;
74328;SDS011;62745;51.060;13.786;2023-04-29T08:39:36;11.53;;;6.50;;
74328;SDS011;62745;51.060;13.786;2023-04-29T08:42:08;11.60;;;7.00;;
74328;SDS011;62745;51.060;13.786;2023-04-29T08:44:34;11.63;;;6.57;;
74328;SDS011;62745;51.060;13.786;2023-04-29T08:47:00;9.55;;;6.03;;
74328;SDS011;62745;51.060;13.786;2023-04-29T08:49:27;11.77;;;7.18;;
74328;SDS011;62745;51.060;13.786;2023-04-29T08:51:52;10.55;;;6.70;;
74328;SDS011;62745;51.060;13.786;2023-04-29T08:54:18;11.30;;;6.53;;
74328;SDS011;62745;51.060;13.786;2023-04-29T08:56:44;11.73;;;7.33;;
74328;SDS011;62745;51.060;13.786;2023-04-29T08:59:11;12.85;;;7.25;;
74328;SDS011;62745;51.060;13.786;2023-04-29T09:01:39;11.98;;;7.15;;
74328;SDS011;62745;51.060;13.786;2023-04-29T09:07:10;13.38;;;7.03;;
74328;SDS011;62745;51.060;13.786;2023-04-29T09:09:36;11.45;;;5.80;;
74328;SDS011;62745;51.060;13.786;2023-04-29T09:12:03;12.38;;;7.05;;
74328;SDS011;62745;51.060;13.786;2023-04-29T09:14:29;11.52;;;6.38;;
74328;SDS011;62745;51.060;13.786;2023-04-29T09:16:58;11.77;;;6.60;;
74328;SDS011;62745;51.060;13.786;2023-04-29T09:19:28;11.82;;;6.50;;
74328;SDS011;62745;51.060;13.786;2023-04-29T09:21:57;13.02;;;7.10;;
74328;SDS011;62745;51.060;13.786;2023-04-29T09:24:27;11.27;;;6.90;;
74328;SDS011;62745;51.060;13.786;2023-04-29T09:26:54;9.98;;;5.95;;
74328;SDS011;62745;51.060;13.786;2023-04-29T09:29:20;10.40;;;6.13;;
74328;SDS011;62745;51.060;13.786;2023-04-29T09:31:45;10.73;;;6.45;;
74328;SDS011;62745;51.060;13.786;2023-04-29T09:34:11;12.32;;;6.82;;
74328;SDS011;62745;51.060;13.786;2023-04-29T09:39:18;11.95;;;6.63;;
74328;SDS011;62745;51.060;13.786;2023-04-29T09:44:19;12.05;;;7.03;;
74328;SDS011;62745;51.060;13.786;2023-04-29T09:46:57;12.02;;;6.80;;
74328;SDS011;62745;51.060;13.786;2023-04-29T09:49:30;12.38;;;7.30;;
74328;SDS011;62745;51.060;13.786;2023-04-29T09:51:57;10.25;;;6.07;;
74328;SDS011;62745;51.060;13.786;2023-04-29T09:54:27;11.82;;;6.60;;
74328;SDS011;62745;51.060;13.786;2023-04-29T09:56:54;12.48;;;6.45;;
74328;SDS011;62745;51.060;13.786;2023-04-29T09:59:22;12.30;;;6.60;;
74328;SDS011;62745;51.060;13.786;2023-04-29T10:01:49;11.07;;;6.68;;
74328;SDS011;62745;51.060;13.786;2023-04-29T10:04:16;10.13;;;5.85;;
74328;SDS011;62745;51.060;13.786;2023-04-29T10:06:43;10.70;;;6.22;;
74328;SDS011;62745;51.060;13.786;2023-04-29T10:09:12;9.93;;;5.90;;
74328;SDS011;62745;51.060;13.786;2023-04-29T10:11:44;11.13;;;6.07;;
74328;SDS011;62745;51.060;13.786;2023-04-29T10:14:17;11.20;;;6.00;;
74328;SDS011;62745;51.060;13.786;2023-04-29T10:19:39;10.80;;;5.70;;
74328;SDS011;62745;51.060;13.786;2023-04-29T10:22:08;9.82;;;5.32;;
74328;SDS011;62745;51.060;13.786;2023-04-29T10:24:36;10.77;;;5.90;;
74328;SDS011;62745;51.060;13.786;2023-04-29T10:27:02;12.57;;;6.75;;
74328;SDS011;62745;51.060;13.786;2023-04-29T10:29:31;12.18;;;6.60;;
74328;SDS011;62745;51.060;13.786;2023-04-29T10:32:00;12.13;;;6.07;;
74328;SDS011;62745;51.060;13.786;2023-04-29T10:34:28;10.65;;;6.03;;
74328;SDS011;62745;51.060;13.786;2023-04-29T10:36:55;16.42;;;7.63;;
74328;SDS011;62745;51.060;13.786;2023-04-29T10:50:30;12.30;;;7.40;;
74328;SDS011;62745;51.060;13.786;2023-04-29T10:55:22;13.65;;;7.55;;
74328;SDS011;62745;51.060;13.786;2023-04-29T10:57:48;13.18;;;7.43;;
74328;SDS011;62745;51.060;13.786;2023-04-29T11:00:20;12.80;;;7.35;;
74328;SDS011;62745;51.060;13.786;2023-04-29T11:02:46;11.00;;;6.43;;
74328;SDS011;62745;51.060;13.786;2023-04-29T11:05:11;12.27;;;7.38;;
74328;SDS011;62745;51.060;13.786;2023-04-29T11:07:37;11.60;;;6.57;;
74328;SDS011;62745;51.060;13.786;2023-04-29T11:10:02;13.10;;;6.35;;
74328;SDS011;62745;51.060;13.786;2023-04-29T11:12:29;12.98;;;7.25;;
74328;SDS011;62745;51.060;13.786;2023-04-29T11:14:54;11.85;;;6.47;;
74328;SDS011;62745;51.060;13.786;2023-04-29T11:17:33;12.70;;;6.68;;
74328;SDS011;62745;51.060;13.786;2023-04-29T11:20:00;11.65;;;6.80;;
74328;SDS011;62745;51.060;13.786;2023-04-29T11:22:26;14.05;;;7.32;;
74328;SDS011;62745;51.060;13.786;2023-04-29T11:24:58;11.95;;;7.47;;
74328;SDS011;62745;51.060;13.786;2023-04-29T11:29:57;12.60;;;6.22;;
74328;SDS011;62745;51.060;13.786;2023-04-29T11:32:24;11.65;;;6.68;;
74328;SDS011;62745;51.060;13.786;2023-04-29T11:34:50;11.60;;;6.50;;
74328;SDS011;62745;51.060;13.786;2023-04-29T11:37:23;12.38;;;7.10;;
74328;SDS011;62745;51.060;13.786;2023-04-29T11:39:49;9.80;;;6.43;;
74328;SDS011;62745;51.060;13.786;2023-04-29T11:42:22;10.18;;;5.78;;
74328;SDS011;62745;51.060;13.786;2023-04-29T11:44:51;10.48;;;5.80;;
74328;SDS011;62745;51.060;13.786;2023-04-29T11:49:43;8.20;;;5.10;;
74328;SDS011;62745;51.060;13.786;2023-04-29T11:52:08;8.00;;;4.40;;
74328;SDS011;62745;51.060;13.786;2023-04-29T11:54:34;7.25;;;4.13;;
74328;SDS011;62745;51.060;13.786;2023-04-29T11:57:00;6.97;;;4.20;;
74328;SDS011;62745;51.060;13.786;2023-04-29T11:59:28;7.85;;;4.57;;
74328;SDS011;62745;51.060;13.786;2023-04-29T12:01:56;6.20;;;3.72;;
74328;SDS011;62745;51.060;13.786;2023-04-29T12:04:24;7.28;;;4.03;;
74328;SDS011;62745;51.060;13.786;2023-04-29T12:06:52;6.68;;;3.88;;
74328;SDS011;62745;51.060;13.786;2023-04-29T12:09:21;6.93;;;3.45;;
74328;SDS011;62745;51.060;13.786;2023-04-29T12:11:47;5.97;;;3.58;;
74328;SDS011;62745;51.060;13.786;2023-04-29T12:14:14;7.57;;;4.13;;
74328;SDS011;62745;51.060;13.786;2023-04-29T12:16:40;6.63;;;3.65;;
74328;SDS011;62745;51.060;13.786;2023-04-29T12:19:06;5.40;;;3.60;;
74328;SDS011;62745;51.060;13.786;2023-04-29T12:21:32;6.60;;;3.83;;
74328;SDS011;62745;51.060;13.786;2023-04-29T12:23:58;8.15;;;3.95;;
74328;SDS011;62745;51.060;13.786;2023-04-29T12:26:29;7.18;;;4.32;;
74328;SDS011;62745;51.060;13.786;2023-04-29T12:28:56;8.77;;;5.25;;
74328;SDS011;62745;51.060;13.786;2023-04-29T12:31:22;10.75;;;5.88;;
74328;SDS011;62745;51.060;13.786;2023-04-29T12:33:48;8.98;;;5.55;;
74328;SDS011;62745;51.060;13.786;2023-04-29T12:36:17;9.27;;;5.88;;
74328;SDS011;62745;51.060;13.786;2023-04-29T12:38:43;10.20;;;6.43;;
74328;SDS011;62745;51.060;13.786;2023-04-29T12:41:11;11.20;;;6.63;;
74328;SDS011;62745;51.060;13.786;2023-04-29T12:43:38;11.95;;;7.18;;
74328;SDS011;62745;51.060;13.786;2023-04-29T12:46:07;9.95;;;6.75;;
74328;SDS011;62745;51.060;13.786;2023-04-29T12:48:34;9.90;;;6.70;;
74328;SDS011;62745;51.060;13.786;2023-04-29T12:51:07;9.93;;;7.20;;
74328;SDS011;62745;51.060;13.786;2023-04-29T12:53:33;9.15;;;5.72;;
74328;SDS011;62745;51.060;13.786;2023-04-29T12:55:59;8.80;;;5.55;;
74328;SDS011;62745;51.060;13.786;2023-04-29T12:58:27;9.73;;;5.83;;
74328;SDS011;62745;51.060;13.786;2023-04-29T13:00:53;10.32;;;6.43;;
74328;SDS011;62745;51.060;13.786;2023-04-29T13:03:18;10.07;;;6.47;;
74328;SDS011;62745;51.060;13.786;2023-04-29T13:05:43;8.87;;;6.10;;
74328;SDS011;62745;51.060;13.786;2023-04-29T13:08:09;9.20;;;6.07;;
74328;SDS011;62745;51.060;13.786;2023-04-29T13:10:34;9.40;;;5.70;;
74328;SDS011;62745;51.060;13.786;2023-04-29T13:12:59;9.40;;;5.68;;
74328;SDS011;62745;51.060;13.786;2023-04-29T13:15:25;9.98;;;6.47;;
74328;SDS011;62745;51.060;13.786;2023-04-29T13:17:51;10.98;;;6.60;;
74328;SDS011;62745;51.060;13.786;2023-04-29T13:20:16;13.40;;;7.50;;
74328;SDS011;62745;51.060;13.786;2023-04-29T13:22:42;10.85;;;6.78;;
74328;SDS011;62745;51.060;13.786;2023-04-29T13:25:08;12.20;;;6.65;;
74328;SDS011;62745;51.060;13.786;2023-04-29T13:27:34;12.32;;;7.65;;
74328;SDS011;62745;51.060;13.786;2023-04-29T13:30:00;13.95;;;7.57;;
74328;SDS011;62745;51.060;13.786;2023-04-29T13:32:25;13.63;;;8.13;;
74328;SDS011;62745;51.060;13.786;2023-04-29T13:34:50;13.67;;;7.43;;
74328;SDS011;62745;51.060;13.786;2023-04-29T13:37:16;14.40;;;7.93;;
74328;SDS011;62745;51.060;13.786;2023-04-29T13:39:41;15.95;;;8.57;;
74328;SDS011;62745;51.060;13.786;2023-04-29T13:42:07;16.73;;;8.90;;
74328;SDS011;62745;51.060;13.786;2023-04-29T13:44:32;16.67;;;8.45;;
74328;SDS011;62745;51.060;13.786;2023-04-29T13:46:58;14.90;;;8.52;;
74328;SDS011;62745;51.060;13.786;2023-04-29T13:49:23;14.40;;;7.65;;
74328;SDS011;62745;51.060;13.786;2023-04-29T13:51:49;17.60;;;9.03;;
74328;SDS011;62745;51.060;13.786;2023-04-29T13:54:14;20.50;;;9.73;;
74328;SDS011;62745;51.060;13.786;2023-04-29T13:56:39;18.57;;;9.77;;
74328;SDS011;62745;51.060;13.786;2023-04-29T13:59:05;20.35;;;9.45;;
74328;SDS011;62745;51.060;13.786;2023-04-29T14:01:31;20.10;;;9.93;;
74328;SDS011;62745;51.060;13.786;2023-04-29T14:03:56;19.27;;;9.95;;
74328;SDS011;62745;51.060;13.786;2023-04-29T14:06:21;21.00;;;9.70;;
74328;SDS011;62745;51.060;13.786;2023-04-29T14:08:47;20.43;;;10.00;;
74328;SDS011;62745;51.060;13.786;2023-04-29T14:11:12;20.20;;;10.07;;
74328;SDS011;62745;51.060;13.786;2023-04-29T14:13:37;17.83;;;9.57;;
74328;SDS011;62745;51.060;13.786;2023-04-29T14:16:02;20.47;;;9.70;;
74328;SDS011;62745;51.060;13.786;2023-04-29T14:18:30;19.48;;;9.57;;
74328;SDS011;62745;51.060;13.786;2023-04-29T14:20:55;20.43;;;9.93;;
74328;SDS011;62745;51.060;13.786;2023-04-29T14:23:21;19.90;;;9.68;;
74328;SDS011;62745;51.060;13.786;2023-04-29T14:25:47;21.27;;;10.47;;
74328;SDS011;62745;51.060;13.786;2023-04-29T14:28:12;19.63;;;10.00;;
74328;SDS011;62745;51.060;13.786;2023-04-29T14:30:37;22.65;;;9.05;;
74328;SDS011;62745;51.060;13.786;2023-04-29T14:33:03;16.48;;;7.97;;
74328;SDS011;62745;51.060;13.786;2023-04-29T14:35:28;22.03;;;9.93;;
74328;SDS011;62745;51.060;13.786;2023-04-29T14:37:55;19.42;;;9.77;;
74328;SDS011;62745;51.060;13.786;2023-04-29T14:40:20;19.35;;;9.75;;
74328;SDS011;62745;51.060;13.786;2023-04-29T14:42:46;19.67;;;11.03;;
74328;SDS011;62745;51.060;13.786;2023-04-29T14:45:11;21.00;;;9.90;;
74328;SDS011;62745;51.060;13.786;2023-04-29T14:47:36;21.83;;;11.03;;
74328;SDS011;62745;51.060;13.786;2023-04-29T14:50:01;18.07;;;9.53;;
74328;SDS011;62745;51.060;13.786;2023-04-29T14:52:28;21.00;;;10.13;;
74328;SDS011;62745;51.060;13.786;2023-04-29T14:54:53;20.10;;;10.45;;
74328;SDS011;62745;51.060;13.786;2023-04-29T14:57:18;18.37;;;10.67;;
74328;SDS011;62745;51.060;13.786;2023-04-29T14:59:44;18.80;;;10.17;;
74328;SDS011;62745;51.060;13.786;2023-04-29T15:02:09;18.95;;;9.40;;
74328;SDS011;62745;51.060;13.786;2023-04-29T15:04:34;16.15;;;8.73;;